createdAt,value
2023-10-06T00:01:28.598Z,83.17
2023-10-06T00:04:32.079Z,83.17
2023-10-06T00:07:35.939Z,83.58
2023-10-06T00:10:45.317Z,83.90
2023-10-06T00:14:02.057Z,83.74
2023-10-06T00:17:09.954Z,83.81
2023-10-06T00:20:22.795Z,83.42
2023-10-06T00:23:29.410Z,83.83
2023-10-06T00:26:32.203Z,83.64
2023-10-06T00:29:38.321Z,83.80
2023-10-06T00:32:43.673Z,83.09
2023-10-06T00:35:49.171Z,83.56
2023-10-06T00:38:52.870Z,83.56
2023-10-06T00:42:05.365Z,83.47
2023-10-06T00:45:10.255Z,83.54
2023-10-06T00:48:16.277Z,83.85
2023-10-06T00:51:23.107Z,83.49
2023-10-06T00:54:26.417Z,83.22
2023-10-06T00:57:30.150Z,83.57
2023-10-06T01:00:38.319Z,83.05
2023-10-06T01:03:43.909Z,83.07
2023-10-06T01:06:47.754Z,83.37
2023-10-06T01:09:59.050Z,83.71
2023-10-06T01:13:13.718Z,83.48
2023-10-06T01:16:16.708Z,83.68
2023-10-06T01:19:28.272Z,83.76
2023-10-06T01:22:42.681Z,83.40
2023-10-06T01:25:46.227Z,84.12
2023-10-06T01:28:50.781Z,84.59
2023-10-06T01:31:53.666Z,84.17
2023-10-06T01:34:56.557Z,84.80
2023-10-06T01:38:01.804Z,85.08
2023-10-06T01:41:08.278Z,84.47
2023-10-06T01:44:13.779Z,84.86
2023-10-06T01:47:19.502Z,85.28
2023-10-06T01:50:27.656Z,85.32
2023-10-06T01:53:34.984Z,85.40
2023-10-06T01:56:38.180Z,85.75
2023-10-06T01:59:41.078Z,86.35
2023-10-06T02:02:44.006Z,85.84
2023-10-06T02:05:46.987Z,86.35
2023-10-06T02:08:53.587Z,86.10
2023-10-06T02:11:56.656Z,86.01
2023-10-06T02:14:59.848Z,85.96
2023-10-06T02:18:02.635Z,85.67
2023-10-06T02:21:07.925Z,85.61
2023-10-06T02:24:13.897Z,85.22
2023-10-06T02:27:17.335Z,85.65
2023-10-06T02:30:26.502Z,85.59
2023-10-06T02:33:32.237Z,85.65
2023-10-06T02:36:35.240Z,86.20
2023-10-06T02:39:44.552Z,86.30
2023-10-06T02:42:53.128Z,86.32
2023-10-06T02:46:05.194Z,86.57
2023-10-06T02:49:09.664Z,86.49
2023-10-06T02:52:22.118Z,86.57
2023-10-06T02:55:34.716Z,86.86
2023-10-06T02:58:37.518Z,86.61
2023-10-06T03:01:40.629Z,86.79
2023-10-06T03:04:44.893Z,86.74
2023-10-06T03:07:49.729Z,86.39
2023-10-06T03:10:54.164Z,86.24
2023-10-06T03:13:59.814Z,85.27
2023-10-06T03:17:02.915Z,85.53
2023-10-06T03:20:11.653Z,85.86
2023-10-06T03:23:25.622Z,85.81
2023-10-06T03:26:35.003Z,85.57
2023-10-06T03:29:48.741Z,85.93
2023-10-06T03:32:54.055Z,85.84
2023-10-06T03:35:58.988Z,85.51
2023-10-06T03:39:08.470Z,85.75
2023-10-06T03:42:19.133Z,85.74
2023-10-06T03:45:28.420Z,85.50
2023-10-06T03:48:32.689Z,85.88
2023-10-06T03:51:39.072Z,85.61
2023-10-06T03:54:42.956Z,85.75
2023-10-06T03:57:47.596Z,85.65
2023-10-06T04:00:52.976Z,85.92
2023-10-06T04:03:59.816Z,85.81
2023-10-06T04:07:03.105Z,85.62
2023-10-06T04:10:09.033Z,85.60
2023-10-06T04:13:13.757Z,85.35
2023-10-06T04:16:16.708Z,84.88
2023-10-06T04:19:20.043Z,85.34
2023-10-06T04:22:22.997Z,85.21
2023-10-06T04:25:25.989Z,85.03
2023-10-06T04:28:30.275Z,85.34
2023-10-06T04:31:33.976Z,84.93
2023-10-06T04:34:37.205Z,84.77
2023-10-06T04:37:40.212Z,84.62
2023-10-06T04:40:43.413Z,85.06
2023-10-06T04:43:47.655Z,84.50
2023-10-06T04:46:51.479Z,84.75
2023-10-06T04:49:54.360Z,85.00
2023-10-06T04:52:57.320Z,84.76
2023-10-06T04:56:00.088Z,84.68
2023-10-06T04:59:04.449Z,84.77
2023-10-06T05:02:07.316Z,84.45
2023-10-06T05:05:11.673Z,85.05
2023-10-06T05:08:16.161Z,84.13
2023-10-06T05:11:20.666Z,85.08
2023-10-06T05:14:28.795Z,85.30
2023-10-06T05:17:33.147Z,85.07
2023-10-06T05:20:37.157Z,85.34
2023-10-06T05:23:40.101Z,85.61
2023-10-06T05:26:44.706Z,84.43
2023-10-06T05:29:48.955Z,84.63
2023-10-06T05:32:51.795Z,84.68
2023-10-06T05:35:54.693Z,85.57
2023-10-06T05:38:57.547Z,84.89
2023-10-06T05:42:00.319Z,84.03
2023-10-06T05:45:13.844Z,85.04
2023-10-06T05:48:17.305Z,85.25
2023-10-06T05:51:22.724Z,85.10
2023-10-06T05:54:27.969Z,84.25
2023-10-06T05:57:32.269Z,84.29
2023-10-06T06:00:36.697Z,84.37
2023-10-06T06:03:46.638Z,84.34
2023-10-06T06:06:50.311Z,84.26
2023-10-06T06:09:53.195Z,83.15
2023-10-06T06:12:56.150Z,83.94
2023-10-06T06:16:00.926Z,84.05
2023-10-06T06:19:06.883Z,83.42
2023-10-06T06:22:11.349Z,82.52
2023-10-06T06:25:14.283Z,83.43
2023-10-06T06:28:17.883Z,82.10
2023-10-06T06:31:22.503Z,81.50
2023-10-06T06:34:25.522Z,81.92
2023-10-06T06:37:29.015Z,81.60
2023-10-06T06:40:31.927Z,80.76
2023-10-06T06:43:34.728Z,80.85
2023-10-06T06:46:39.809Z,81.63
2023-10-06T06:49:44.569Z,80.56
2023-10-06T06:52:48.703Z,79.76
2023-10-06T06:55:52.554Z,79.46
2023-10-06T06:58:55.400Z,80.35
2023-10-06T07:01:59.941Z,80.56
2023-10-06T07:05:03.068Z,80.14
2023-10-06T07:08:06.688Z,80.06
2023-10-06T07:11:11.485Z,78.70
2023-10-06T07:14:15.880Z,78.06
2023-10-06T07:17:23.396Z,78.01
2023-10-06T07:20:28.560Z,76.95
2023-10-06T07:23:31.443Z,75.22
2023-10-06T07:26:34.452Z,76.82
2023-10-06T07:29:37.263Z,77.77
2023-10-06T07:32:43.023Z,76.83
2023-10-06T07:35:48.554Z,76.71
2023-10-06T07:38:51.770Z,76.33
2023-10-06T07:41:54.665Z,76.77
2023-10-06T07:44:58.956Z,74.79
2023-10-06T07:48:06.249Z,74.18
2023-10-06T07:51:09.396Z,73.93
2023-10-06T07:54:12.233Z,73.13
2023-10-06T07:57:15.359Z,73.67
2023-10-06T08:00:28.528Z,73.71
2023-10-06T08:03:33.947Z,73.85
2023-10-06T08:06:37.242Z,72.40
2023-10-06T08:09:40.471Z,71.28
2023-10-06T08:12:44.615Z,72.71
2023-10-06T08:15:47.407Z,72.62
2023-10-06T08:18:51.674Z,72.27
2023-10-06T08:21:56.981Z,71.81
2023-10-06T08:25:00.065Z,70.75
2023-10-06T08:28:06.296Z,69.99
2023-10-06T08:31:16.096Z,70.29
2023-10-06T08:34:22.742Z,69.54
2023-10-06T08:37:25.667Z,68.76
2023-10-06T08:40:28.921Z,69.34
2023-10-06T08:43:33.501Z,69.54
2023-10-06T08:46:36.479Z,68.42
2023-10-06T08:49:42.071Z,69.01
2023-10-06T08:52:47.185Z,68.21
2023-10-06T08:55:50.227Z,67.14
2023-10-06T08:58:54.483Z,66.74
2023-10-06T09:01:57.282Z,68.35
2023-10-06T09:05:01.696Z,66.91
2023-10-06T09:08:06.572Z,64.68
2023-10-06T09:11:09.439Z,64.85
2023-10-06T09:14:13.604Z,64.45
2023-10-06T09:17:17.344Z,65.04
2023-10-06T09:20:31.503Z,62.37
2023-10-06T09:23:37.727Z,63.67
2023-10-06T09:26:40.714Z,62.66
2023-10-06T09:29:43.518Z,62.82
2023-10-06T09:32:46.454Z,63.06
2023-10-06T09:36:02.916Z,61.91
2023-10-06T09:39:07.701Z,62.32
2023-10-06T09:42:11.198Z,60.57
2023-10-06T09:45:17.098Z,60.44
2023-10-06T09:48:27.476Z,59.69
2023-10-06T09:51:34.653Z,59.69
2023-10-06T09:54:39.587Z,59.77
2023-10-06T09:57:44.625Z,60.32
2023-10-06T10:00:47.729Z,59.32
2023-10-06T10:03:51.703Z,58.25
2023-10-06T10:06:56.716Z,58.09
2023-10-06T10:10:00.157Z,58.41
2023-10-06T10:13:36.546Z,58.28
2023-10-06T10:17:06.117Z,59.55
2023-10-06T10:20:11.044Z,59.51
2023-10-06T10:23:17.255Z,60.32
2023-10-06T10:26:24.199Z,59.91
2023-10-06T10:29:30.716Z,59.52
2023-10-06T10:32:33.488Z,59.25
2023-10-06T10:35:36.624Z,59.67
2023-10-06T10:38:41.206Z,60.14
2023-10-06T10:41:43.975Z,59.27
2023-10-06T10:44:48.756Z,59.89
2023-10-06T10:47:52.752Z,59.35
2023-10-06T10:51:00.788Z,58.94
2023-10-06T10:54:07.211Z,57.70
2023-10-06T10:57:12.842Z,57.87
2023-10-06T11:00:16.969Z,58.11
2023-10-06T11:03:21.644Z,56.41
2023-10-06T11:06:24.660Z,56.39
2023-10-06T11:09:31.353Z,55.44
2023-10-06T11:12:36.354Z,55.85
2023-10-06T11:15:40.017Z,54.67
2023-10-06T11:18:42.916Z,52.80
2023-10-06T11:21:48.325Z,53.94
2023-10-06T11:24:58.415Z,54.07
2023-10-06T11:28:04.787Z,53.40
2023-10-06T11:31:12.355Z,53.81
2023-10-06T11:37:19.861Z,54.63
2023-10-06T11:40:25.968Z,53.94
2023-10-06T11:43:32.128Z,53.69
2023-10-06T11:46:49.417Z,52.93
2023-10-06T11:49:55.214Z,53.40
2023-10-06T11:52:58.050Z,52.97
2023-10-06T11:56:09.133Z,52.84
2023-10-06T11:59:21.401Z,53.49
2023-10-06T12:02:25.333Z,53.42
2023-10-06T12:05:28.691Z,51.51
2023-10-06T12:08:31.514Z,52.50
2023-10-06T12:11:35.852Z,53.89
2023-10-06T12:14:39.211Z,53.51
2023-10-06T12:17:43.282Z,52.87
2023-10-06T12:20:46.336Z,52.61
2023-10-06T12:23:49.366Z,54.09
2023-10-06T12:26:53.724Z,54.75
2023-10-06T12:29:56.790Z,55.30
2023-10-06T12:33:00.439Z,54.14
2023-10-06T12:36:09.251Z,53.43
2023-10-06T12:39:16.981Z,53.95
2023-10-06T12:42:21.065Z,54.30
2023-10-06T12:45:24.283Z,53.37
2023-10-06T12:48:27.168Z,53.22
2023-10-06T12:51:30.436Z,53.92
2023-10-06T12:54:33.123Z,53.75
2023-10-06T12:57:38.929Z,53.78
2023-10-06T13:00:41.825Z,54.36
2023-10-06T13:03:45.135Z,54.13
2023-10-06T13:06:49.766Z,54.15
2023-10-06T13:09:54.774Z,54.99
2023-10-06T13:12:59.306Z,54.17
2023-10-06T13:16:02.151Z,55.28
2023-10-06T13:19:05.659Z,56.66
2023-10-06T13:22:08.425Z,59.00
2023-10-06T13:25:12.396Z,62.98
2023-10-06T13:28:19.460Z,65.05
2023-10-06T13:31:22.802Z,67.05
2023-10-06T13:34:25.566Z,67.87
2023-10-06T13:37:29.364Z,66.77
2023-10-06T13:40:32.494Z,67.23
2023-10-06T13:43:36.625Z,67.91
2023-10-06T13:46:41.791Z,68.12
2023-10-06T13:49:44.801Z,69.67
2023-10-06T13:52:50.836Z,69.43
2023-10-06T13:55:54.317Z,69.09
2023-10-06T13:58:58.500Z,69.79
2023-10-06T14:02:04.033Z,68.69
2023-10-06T14:05:08.497Z,68.78
2023-10-06T14:08:12.483Z,69.96
2023-10-06T14:11:15.401Z,69.75
2023-10-06T14:14:39.694Z,68.94
2023-10-06T14:17:43.501Z,69.00
2023-10-06T14:20:50.956Z,68.82
2023-10-06T14:23:56.004Z,69.55
2023-10-06T14:26:59.927Z,68.54
2023-10-06T14:30:05.354Z,70.70
2023-10-06T14:33:18.968Z,69.87
2023-10-06T14:36:26.982Z,69.82
2023-10-06T14:39:47.054Z,69.38
2023-10-06T14:43:07.344Z,70.30
2023-10-06T14:46:11.496Z,70.63
2023-10-06T14:49:15.111Z,69.49
2023-10-06T14:52:17.971Z,72.05
2023-10-06T14:55:22.707Z,71.11
2023-10-06T14:58:25.567Z,71.60
2023-10-06T15:01:30.429Z,72.28
2023-10-06T15:04:33.279Z,72.09
2023-10-06T15:07:38.058Z,71.19
2023-10-06T15:10:42.426Z,70.92
2023-10-06T15:13:48.291Z,71.08
2023-10-06T15:16:52.595Z,72.04
2023-10-06T15:20:00.092Z,70.84
2023-10-06T15:23:02.892Z,71.01
2023-10-06T15:26:08.508Z,70.91
2023-10-06T15:29:12.836Z,71.10
2023-10-06T15:32:17.231Z,72.81
2023-10-06T15:35:20.142Z,71.18
2023-10-06T15:38:23.266Z,70.61
2023-10-06T15:41:26.369Z,71.24
2023-10-06T15:44:29.226Z,71.54
2023-10-06T15:47:34.784Z,71.62
2023-10-06T15:50:37.989Z,70.16
2023-10-06T15:53:42.511Z,70.78
2023-10-06T15:56:47.784Z,70.93
2023-10-06T15:59:50.730Z,71.14
2023-10-06T16:02:55.811Z,71.11
2023-10-06T16:05:59.108Z,70.67
2023-10-06T16:09:09.101Z,71.45
2023-10-06T16:12:14.435Z,71.84
2023-10-06T16:15:19.382Z,71.73
2023-10-06T16:18:23.501Z,71.02
2023-10-06T16:21:26.400Z,71.26
2023-10-06T16:24:29.154Z,71.53
2023-10-06T16:27:33.010Z,70.74
2023-10-06T16:30:35.876Z,71.00
2023-10-06T16:33:42.367Z,71.06
2023-10-06T16:36:45.283Z,71.63
2023-10-06T16:39:48.241Z,71.03
2023-10-06T16:42:50.945Z,71.10
2023-10-06T16:45:53.731Z,71.17
2023-10-06T16:48:58.552Z,70.99
2023-10-06T16:52:01.407Z,70.68
2023-10-06T16:55:07.046Z,70.33
2023-10-06T16:58:10.722Z,70.33
2023-10-06T17:01:13.508Z,70.24
2023-10-06T17:04:19.533Z,70.85
2023-10-06T17:07:22.520Z,70.13
2023-10-06T17:10:25.270Z,68.97
2023-10-06T17:13:29.595Z,70.33
2023-10-06T17:16:32.558Z,70.12
2023-10-06T17:19:38.500Z,69.29
2023-10-06T17:22:41.392Z,69.81
2023-10-06T17:25:44.154Z,69.36
2023-10-06T17:28:47.292Z,68.85
2023-10-06T17:31:50.197Z,68.70
2023-10-06T17:34:54.607Z,69.14
2023-10-06T17:37:58.592Z,68.21
2023-10-06T17:41:01.408Z,67.92
2023-10-06T17:44:05.011Z,67.19
2023-10-06T17:47:08.569Z,67.00
2023-10-06T17:50:13.730Z,65.99
2023-10-06T17:53:16.591Z,65.55
2023-10-06T17:56:19.903Z,65.73
2023-10-06T17:59:22.884Z,64.39
2023-10-06T18:02:26.211Z,64.74
2023-10-06T18:05:30.305Z,64.12
2023-10-06T18:08:33.743Z,63.61
2023-10-06T18:11:36.607Z,64.37
2023-10-06T18:14:39.802Z,63.52
2023-10-06T18:17:43.039Z,62.78
2023-10-06T18:20:47.618Z,63.25
2023-10-06T18:23:50.515Z,62.80
2023-10-06T18:26:53.238Z,61.80
2023-10-06T18:29:56.284Z,61.95
2023-10-06T18:32:59.165Z,61.18
2023-10-06T18:36:03.387Z,61.84
2023-10-06T18:39:07.726Z,61.59
2023-10-06T18:42:10.704Z,62.26
2023-10-06T18:45:14.418Z,61.89
2023-10-06T18:48:18.714Z,61.55
2023-10-06T18:51:23.496Z,62.23
2023-10-06T18:54:26.637Z,62.11
2023-10-06T18:57:30.608Z,61.17
2023-10-06T19:00:33.812Z,60.96
2023-10-06T19:03:38.188Z,60.26
2023-10-06T19:06:45.432Z,60.51
2023-10-06T19:09:48.377Z,60.30
2023-10-06T19:12:51.377Z,60.42
2023-10-06T19:15:55.013Z,59.93
2023-10-06T19:19:01.555Z,60.35
2023-10-06T19:22:07.261Z,60.01
2023-10-06T19:25:12.318Z,59.25
2023-10-06T19:28:15.555Z,60.25
2023-10-06T19:31:19.943Z,59.52
2023-10-06T19:34:25.120Z,59.24
2023-10-06T19:37:30.312Z,59.45
2023-10-06T19:40:33.606Z,59.34
2023-10-06T19:43:37.010Z,59.25
2023-10-06T19:46:40.547Z,58.32
2023-10-06T19:49:43.939Z,58.27
2023-10-06T19:52:48.463Z,57.70
2023-10-06T19:55:53.335Z,57.53
2023-10-06T19:58:56.539Z,58.00
2023-10-06T20:01:59.680Z,57.99
2023-10-06T20:05:02.675Z,58.21
2023-10-06T20:08:07.929Z,57.94
2023-10-06T20:11:13.233Z,58.48
2023-10-06T20:14:15.944Z,58.07
2023-10-06T20:17:18.903Z,57.61
2023-10-06T20:20:22.076Z,57.25
2023-10-06T20:23:27.502Z,58.00
2023-10-06T20:26:30.450Z,57.79
2023-10-06T20:29:35.181Z,57.37
2023-10-06T20:32:38.099Z,58.02
2023-10-06T20:35:41.116Z,57.68
2023-10-06T20:38:45.289Z,57.68
2023-10-06T20:41:49.209Z,58.03
2023-10-06T20:44:52.966Z,57.47
2023-10-06T20:47:56.496Z,57.67
2023-10-06T20:51:01.789Z,57.35
2023-10-06T20:54:09.082Z,57.77
2023-10-06T20:57:12.422Z,57.36
2023-10-06T21:00:21.528Z,57.95
2023-10-06T21:03:26.988Z,58.08
2023-10-06T21:06:30.158Z,57.88
2023-10-06T21:09:34.716Z,58.34
2023-10-06T21:12:39.665Z,58.29
2023-10-06T21:15:43.473Z,58.08
2023-10-06T21:18:46.425Z,58.51
2023-10-06T21:21:49.588Z,58.66
2023-10-06T21:24:54.953Z,59.19
2023-10-06T21:27:58.032Z,58.74
2023-10-06T21:31:06.116Z,59.09
2023-10-06T21:34:12.393Z,59.45
2023-10-06T21:37:15.696Z,59.51
2023-10-06T21:40:20.319Z,59.42
2023-10-06T21:43:31.161Z,60.46
2023-10-06T21:46:34.133Z,60.27
2023-10-06T21:49:43.267Z,59.92
2023-10-06T21:52:46.260Z,60.03
2023-10-06T21:55:51.134Z,61.03
2023-10-06T21:58:54.184Z,60.55
2023-10-06T22:01:58.951Z,61.06
2023-10-06T22:05:02.280Z,61.20
2023-10-06T22:08:07.428Z,61.51
2023-10-06T22:11:13.912Z,61.52
2023-10-06T22:14:20.713Z,61.45
2023-10-06T22:17:23.645Z,61.80
2023-10-06T22:20:32.064Z,61.76
2023-10-06T22:23:36.857Z,62.00
2023-10-06T22:26:41.528Z,62.00
2023-10-06T22:29:48.494Z,61.91
2023-10-06T22:32:51.753Z,61.83
2023-10-06T22:35:54.713Z,61.68
2023-10-06T22:38:57.568Z,61.41
2023-10-06T22:42:02.134Z,61.74
2023-10-06T22:45:09.004Z,61.14
2023-10-06T22:48:13.457Z,61.53
2023-10-06T22:51:16.927Z,61.15
2023-10-06T22:54:19.978Z,61.64
2023-10-06T22:57:24.543Z,61.46
2023-10-06T23:00:30.247Z,62.05
2023-10-06T23:03:33.755Z,62.30
2023-10-06T23:06:37.094Z,61.77
2023-10-06T23:09:40.744Z,62.13
2023-10-06T23:12:48.603Z,62.44
2023-10-06T23:15:51.598Z,62.35
2023-10-06T23:18:56.749Z,62.28
2023-10-06T23:22:02.787Z,61.98
2023-10-06T23:25:09.333Z,62.15
2023-10-06T23:28:13.820Z,62.31
2023-10-06T23:31:17.158Z,62.29
2023-10-06T23:34:20.276Z,62.24
2023-10-06T23:37:23.561Z,61.99
2023-10-06T23:40:27.011Z,62.30
2023-10-06T23:43:31.957Z,61.98
2023-10-06T23:46:35.013Z,62.82
2023-10-06T23:49:42.493Z,62.57
2023-10-06T23:52:46.733Z,62.25
2023-10-06T23:55:50.562Z,62.75
2023-10-06T23:58:55.433Z,62.96
